Time;durP1;ratioP1;P1;durP2;ratioP2;P2;SDS_P1;SDS_P2;PMS_P1;PMS_P2;Temp;Humidity;BMP_temperature;BMP_pressure;BME280_temperature;BME280_humidity;BME280_pressure;Samples;Min_cycle;Max_cycle;Signal;HPM_P1;HPM_P2
2024/03/17 11:03:40;;;;;;;4.90;2.20;;;;;;;7.66;60.86;99366.98;102469;1292;635747;-81
2024/03/17 11:06:10;;;;;;;6.60;3.00;;;;;;;7.57;59.29;99381.95;104713;1269;96090;-81
2024/03/17 11:08:42;;;;;;;9.00;3.00;;;;;;;7.43;59.39;99380.77;105244;1268;95360;-79
2024/03/17 11:11:35;;;;;;;6.10;2.80;;;;;;;7.45;60.00;99380.10;105268;1266;110121;-80
2024/03/17 11:14:19;;;;;;;6.10;2.70;;;;;;;7.53;59.80;99375.27;106328;1263;97244;-80
2024/03/17 11:16:47;;;;;;;6.50;2.70;;;;;;;7.57;59.29;99379.60;104585;1257;2599347;-80
2024/03/17 11:19:17;;;;;;;5.80;2.60;;;;;;;7.60;59.75;99379.13;106492;1257;96145;-80
2024/03/17 11:21:48;;;;;;;9.40;2.90;;;;;;;7.70;59.81;99369.00;106410;1257;95158;-79
2024/03/17 11:24:21;;;;;;;6.10;2.90;;;;;;;7.80;59.36;99381.41;106382;1258;107206;-79
2024/03/17 11:26:49;;;;;;;4.40;2.30;;;;;;;7.80;59.39;99376.97;106344;1257;96752;-79
2024/03/17 11:29:28;;;;;;;5.30;2.70;;;;;;;7.81;58.98;99364.21;106315;1263;106082;-80
2024/03/17 11:31:57;;;;;;;6.90;2.70;;;;;;;7.88;59.10;99370.52;106146;1263;96689;-80
2024/03/17 11:34:33;;;;;;;6.90;3.30;;;;;;;7.82;58.52;99367.66;105601;1267;96552;-78
2024/03/17 11:37:03;;;;;;;7.70;2.90;;;;;;;7.81;59.06;99365.77;106129;1257;109394;-80
2024/03/17 11:39:57;;;;;;;4.10;2.00;;;;;;;7.85;58.38;99364.71;106444;1257;96601;-80
2024/03/17 11:42:27;;;;;;;7.50;3.10;;;;;;;7.73;58.28;99374.17;106405;1265;106903;-79
2024/03/17 11:45:06;;;;;;;7.80;2.90;;;;;;;7.58;57.85;99383.46;106301;1257;97912;-80
2024/03/17 11:47:55;;;;;;;7.10;3.20;;;;;;;7.40;57.64;99375.46;103833;1290;636201;-81
2024/03/17 11:50:32;;;;;;;5.80;2.80;;;;;;;7.22;57.11;99380.45;106707;1260;95570;-80
2024/03/17 11:53:01;;;;;;;7.70;3.20;;;;;;;7.12;57.89;99378.87;106497;1262;95284;-79
2024/03/17 11:55:30;;;;;;;5.90;2.60;;;;;;;7.10;57.67;99377.91;106333;1261;109002;-80
2024/03/17 11:58:33;;;;;;;4.30;3.00;;;;;;;7.05;57.38;99384.52;106303;1266;95313;-80
2024/03/17 12:01:05;;;;;;;6.90;5.40;;;;;;;6.97;57.21;99380.91;106518;1259;189134;-79
2024/03/17 12:03:42;;;;;;;8.70;5.00;;;;;;;6.88;57.23;99382.27;106646;1259;96165;-79
2024/03/17 12:06:14;;;;;;;7.40;3.70;;;;;;;6.83;57.44;99378.08;106649;1259;95236;-79
2024/03/17 12:08:51;;;;;;;7.70;3.90;;;;;;;6.84;57.55;99379.48;106667;1254;108883;-80
2024/03/17 12:11:30;;;;;;;;;;;;;;;6.82;57.37;99382.91;106569;1262;96451;-80
2024/03/17 12:14:16;;;;;;;7.40;3.30;;;;;;;6.76;57.39;99382.54;105541;1259;108879;-80
2024/03/17 12:16:59;;;;;;;7.20;4.00;;;;;;;6.72;57.41;99384.67;105837;1251;97836;-79
2024/03/17 12:19:32;;;;;;;9.50;3.50;;;;;;;6.68;57.66;99384.89;105877;1257;97410;-80
2024/03/17 12:22:16;;;;;;;9.50;5.50;;;;;;;6.66;57.45;99385.47;105639;1256;111489;-80
2024/03/17 12:24:46;;;;;;;10.90;3.10;;;;;;;6.64;57.33;99383.11;105796;1251;96521;-80
2024/03/17 12:27:24;;;;;;;10.00;4.10;;;;;;;6.58;57.46;99382.20;106233;1254;108732;-80
2024/03/17 12:29:56;;;;;;;11.10;5.50;;;;;;;6.51;57.34;99380.08;106271;1261;96619;-80
2024/03/17 12:32:31;;;;;;;8.70;5.00;;;;;;;6.52;57.37;99374.41;105694;1251;96581;-79
2024/03/17 12:35:11;;;;;;;6.00;3.10;;;;;;;6.53;57.14;99383.35;105721;1259;109452;-80
2024/03/17 12:37:50;;;;;;;8.30;5.20;;;;;;;6.49;56.74;99374.02;106033;1257;96664;-80
2024/03/17 12:40:29;;;;;;;7.80;4.60;;;;;;;6.50;56.97;99368.88;105983;1254;108583;-79
2024/03/17 12:42:59;;;;;;;12.20;5.10;;;;;;;6.52;56.90;99361.73;105939;1259;96594;-80
2024/03/17 12:45:29;;;;;;;9.10;4.50;;;;;;;6.61;56.96;99362.34;106147;1256;96623;-80
2024/03/17 12:48:01;;;;;;;27.00;9.20;;;;;;;6.65;56.83;99358.77;106073;1254;111135;-80
2024/03/17 12:50:56;;;;;;;26.10;10.70;;;;;;;6.67;56.61;99356.02;106821;1259;96617;-81
2024/03/17 12:54:33;;;;;;;12.60;4.60;;;;;;;6.68;56.70;99356.14;105977;1254;109150;-80
2024/03/17 13:02:49;;;;;;;11.20;3.60;;;;;;;6.60;56.70;99364.31;105729;1258;109526;-80
2024/03/17 13:05:27;;;;;;;8.20;3.70;;;;;;;6.60;56.77;99358.15;105539;1259;96497;-80
2024/03/17 13:07:56;;;;;;;22.30;10.60;;;;;;;6.60;56.79;99359.56;106372;1254;109198;-80
2024/03/17 13:10:30;;;;;;;13.60;6.00;;;;;;;6.61;56.80;99365.64;105725;1259;97555;-80
2024/03/17 13:13:18;;;;;;;11.00;4.50;;;;;;;6.58;56.76;99363.89;105683;1259;96600;-80
2024/03/17 13:15:48;;;;;;;8.60;3.60;;;;;;;6.52;56.20;99364.52;105501;1259;110022;-81
2024/03/17 13:18:22;;;;;;;7.10;3.20;;;;;;;6.45;56.17;99359.30;105760;1259;96699;-82
2024/03/17 13:21:06;;;;;;;7.40;3.50;;;;;;;6.43;56.55;99364.98;105741;1253;108013;-81
2024/03/17 13:23:52;;;;;;;6.90;2.90;;;;;;;6.43;56.11;99369.40;105664;1259;97882;-81
2024/03/17 13:26:27;;;;;;;4.20;2.10;;;;;;;6.40;56.20;99368.50;105948;1253;96706;-81
2024/03/17 13:29:06;;;;;;;8.50;3.60;;;;;;;6.38;56.36;99366.30;106260;1254;109655;-81
2024/03/17 13:31:47;;;;;;;6.60;2.90;;;;;;;6.36;56.35;99366.21;105747;1260;96751;-81
2024/03/17 13:34:20;;;;;;;9.20;3.40;;;;;;;6.35;56.43;99371.55;105667;1253;108674;-81
2024/03/17 13:36:57;;;;;;;9.10;3.80;;;;;;;6.33;56.67;99372.70;105646;1256;96655;-81
2024/03/17 13:39:39;;;;;;;9.60;4.50;;;;;;;6.32;56.77;99373.29;105644;1254;96691;-80
2024/03/17 13:42:20;;;;;;;9.80;4.00;;;;;;;6.30;56.41;99374.25;105620;1262;109220;-80
2024/03/17 13:44:53;;;;;;;10.10;5.60;;;;;;;6.26;56.52;99377.83;105586;1256;96707;-80
2024/03/17 13:47:25;;;;;;;5.50;3.10;;;;;;;6.22;56.20;99385.07;106835;1251;107603;-81
2024/03/17 13:49:53;;;;;;;8.60;4.10;;;;;;;6.15;56.02;99382.77;106156;1254;96649;-80
2024/03/17 13:52:28;;;;;;;25.40;9.70;;;;;;;6.12;56.30;99377.80;106478;1259;96671;-78
2024/03/17 13:55:02;;;;;;;15.20;7.20;;;;;;;6.13;56.40;99377.39;105975;1254;110355;-80
2024/03/17 13:57:36;;;;;;;12.70;5.70;;;;;;;6.17;56.70;99372.79;105831;1254;96566;-81
2024/03/17 14:00:16;;;;;;;8.70;3.90;;;;;;;6.19;56.35;99378.70;105752;1258;106397;-81
2024/03/17 14:02:53;;;;;;;8.70;3.70;;;;;;;6.15;56.30;99385.58;105992;1257;96615;-81
2024/03/17 14:05:27;;;;;;;8.50;4.40;;;;;;;6.10;56.10;99378.92;105699;1254;96598;-81
2024/03/17 14:07:55;;;;;;;5.30;2.90;;;;;;;6.08;56.15;99378.18;105647;1260;108720;-81
2024/03/17 14:10:25;;;;;;;7.50;2.80;;;;;;;6.05;56.18;99371.64;106538;1253;96694;-81
2024/03/17 14:13:02;;;;;;;7.10;2.60;;;;;;;6.06;56.38;99369.63;105849;1254;107136;-81
2024/03/17 14:19:04;;;;;;;8.00;3.60;;;;;;;6.07;56.39;99360.61;106283;1254;98079;-81
2024/03/17 14:21:42;;;;;;;8.10;3.60;;;;;;;6.07;56.29;99361.15;106550;1256;109929;-80
2024/03/17 14:24:14;;;;;;;7.80;3.20;;;;;;;6.06;56.22;99361.36;105905;1260;96636;-79
2024/03/17 14:26:51;;;;;;;8.90;4.50;;;;;;;6.05;56.47;99358.92;106071;1253;107763;-80
2024/03/17 14:29:24;;;;;;;13.60;5.40;;;;;;;6.06;56.48;99353.77;106738;1256;96731;-80
2024/03/17 14:32:07;;;;;;;12.50;4.40;;;;;;;6.08;56.29;99350.88;105684;1254;96623;-80
2024/03/17 14:34:52;;;;;;;10.30;4.30;;;;;;;6.08;56.27;99351.40;106149;1257;110478;-80
2024/03/17 14:37:27;;;;;;;13.90;5.80;;;;;;;6.08;56.39;99345.58;105703;1254;96620;-80
2024/03/17 14:40:17;;;;;;;12.80;5.80;;;;;;;6.11;56.39;99349.48;105841;1254;108981;-80
2024/03/17 14:42:55;;;;;;;9.20;3.20;;;;;;;6.15;56.41;99339.09;105508;1255;96678;-80
2024/03/17 14:45:40;;;;;;;6.30;3.00;;;;;;;6.17;56.13;99342.33;106283;1254;96568;-79
2024/03/17 14:48:13;;;;;;;8.00;3.60;;;;;;;6.20;56.31;99340.41;106315;1254;111569;-73
2024/03/17 14:50:41;;;;;;;6.60;3.30;;;;;;;6.23;56.47;99338.00;105605;1254;97928;-76
2024/03/17 14:53:10;;;;;;;7.30;3.10;;;;;;;6.28;56.38;99333.85;105461;1256;107988;-76
2024/03/17 14:55:45;;;;;;;5.00;2.30;;;;;;;6.29;56.06;99338.38;105495;1256;97458;-80
2024/03/17 14:58:15;;;;;;;5.10;2.40;;;;;;;6.27;56.03;99334.98;105273;1254;96614;-78
2024/03/17 15:00:43;;;;;;;4.70;2.20;;;;;;;6.24;55.83;99341.45;105209;1256;109021;-75
2024/03/17 15:03:13;;;;;;;5.00;2.40;;;;;;;6.21;55.89;99333.53;105733;1254;96641;-80
2024/03/17 15:06:08;;;;;;;11.00;4.30;;;;;;;6.21;55.89;99335.98;105499;1262;108132;-79
2024/03/17 15:08:45;;;;;;;13.60;5.30;;;;;;;6.26;56.05;99332.02;105706;1258;97818;-80
2024/03/17 15:11:21;;;;;;;19.20;5.90;;;;;;;6.32;55.88;99335.77;106136;1258;96616;-81
2024/03/17 15:13:53;;;;;;;16.30;5.30;;;;;;;6.30;55.41;99329.89;106202;1259;111051;-81
2024/03/17 15:16:47;;;;;;;10.40;3.60;;;;;;;6.26;55.63;99327.78;105610;1254;97582;-80
2024/03/17 15:19:20;;;;;;;10.50;4.50;;;;;;;6.22;55.41;99330.10;105505;1254;108199;-80
2024/03/17 15:21:58;;;;;;;11.60;3.70;;;;;;;6.20;55.59;99329.52;105523;1262;97404;-81
2024/03/17 15:24:30;;;;;;;7.70;2.70;;;;;;;6.18;55.53;99328.19;105834;1256;96609;-80
2024/03/17 15:27:09;;;;;;;4.90;2.10;;;;;;;6.15;55.31;99329.95;105526;1254;109182;-80
2024/03/17 15:29:56;;;;;;;7.40;2.50;;;;;;;6.11;55.39;99330.29;106429;1254;97023;-80
2024/03/17 15:32:24;;;;;;;5.50;2.20;;;;;;;6.06;55.11;99332.66;106346;1261;108383;-79
2024/03/17 15:34:53;;;;;;;3.00;2.00;;;;;;;6.02;55.10;99327.59;105609;1263;97423;-81
2024/03/17 15:37:24;;;;;;;4.40;1.90;;;;;;;5.98;54.96;99329.17;105763;1260;96719;-80
2024/03/17 15:39:56;;;;;;;4.00;1.90;;;;;;;5.91;54.57;99339.16;105775;1259;109545;-81
2024/03/17 15:42:34;;;;;;;6.10;2.40;;;;;;;5.90;54.98;99330.44;105627;1253;97616;-81
2024/03/17 15:45:28;;;;;;;4.00;1.90;;;;;;;5.90;55.18;99334.49;105966;1253;108119;-81
2024/03/17 15:47:59;;;;;;;5.60;2.80;;;;;;;5.90;55.43;99331.14;106539;1256;96620;-81
2024/03/17 15:50:29;;;;;;;6.30;2.90;;;;;;;5.89;55.45;99328.70;106690;1259;96596;-81
2024/03/17 15:57:55;;;;;;;4.20;2.30;;;;;;;5.76;55.24;99323.19;105818;1270;97453;-81
2024/03/17 16:00:27;;;;;;;3.90;1.70;;;;;;;5.73;55.39;99327.69;106037;1260;107816;-80
2024/03/17 16:02:56;;;;;;;3.80;1.80;;;;;;;5.71;55.26;99331.20;106754;1256;96328;-80
2024/03/17 16:05:24;;;;;;;5.50;1.90;;;;;;;5.66;55.16;99332.48;106922;1254;97449;-81
2024/03/17 16:07:51;;;;;;;4.70;1.80;;;;;;;5.62;55.06;99329.48;107062;1253;108608;-80
2024/03/17 16:10:23;;;;;;;6.20;2.80;;;;;;;5.60;55.17;99332.91;107061;1256;97423;-77
2024/03/17 16:13:13;;;;;;;;;;;;;;;;;;;;;
2024/03/17 16:16:27;;;;;;;5.80;2.50;;;;;;;5.56;55.45;99331.68;106933;1256;98821;-80
2024/03/17 16:19:33;;;;;;;4.00;2.50;;;;;;;5.52;55.38;99330.48;106846;1259;97916;-81
2024/03/17 16:22:52;;;;;;;;;;;;;;;;;;;;;
2024/03/17 16:27:27;;;;;;;;;;;;;;;;;;;;;
2024/03/17 16:43:39;;;;;;;;;;;;;;;;;;;;;
2024/03/17 16:46:46;;;;;;;11.70;5.60;;;;;;;5.26;55.76;99333.46;105917;1271;97844;-81
2024/03/17 16:50:21;;;;;;;29.20;14.50;;;;;;;5.31;55.51;99338.88;103022;1292;649133;-83
2024/03/17 16:53:09;;;;;;;26.80;15.10;;;;;;;5.27;55.76;99343.77;104647;1275;95209;-71
2024/03/17 16:55:35;;;;;;;65.00;47.10;;;;;;;5.27;55.74;99345.73;104790;1268;95270;-73
2024/03/17 16:58:01;;;;;;;;;;;;;;;5.25;55.90;99341.74;105006;1272;95227;-79
2024/03/17 17:00:44;;;;;;;54.70;25.10;;;;;;;5.21;55.92;99341.95;105178;1269;95286;-80
2024/03/17 17:03:37;;;;;;;75.50;41.60;;;;;;;5.20;55.99;99342.49;104861;1262;702451;-77
2024/03/17 17:06:39;;;;;;;64.10;34.40;;;;;;;5.21;56.08;99344.41;105534;1262;95273;-82
2024/03/17 17:20:33;;;;;;;60.50;33.80;;;;;;;5.66;55.72;99342.66;105656;1263;649887;-79
2024/03/17 17:23:17;;;;;;;86.50;47.50;;;;;;;5.61;56.58;99347.12;104581;1241;4579699;-81
2024/03/17 17:26:22;;;;;;;82.70;38.00;;;;;;;5.58;56.64;99341.63;108100;1245;95243;-80
2024/03/17 17:29:08;;;;;;;128.20;46.80;;;;;;;5.53;56.52;99341.88;107934;1250;107958;-79
2024/03/17 17:31:46;;;;;;;50.80;19.60;;;;;;;5.48;56.44;99346.11;108094;1241;97370;-80
2024/03/17 17:34:42;;;;;;;30.50;13.70;;;;;;;5.44;56.60;99344.77;108164;1241;107806;-80
2024/03/17 17:37:15;;;;;;;46.70;19.90;;;;;;;5.38;56.59;99348.73;108231;1238;95330;-81
2024/03/17 17:39:43;;;;;;;123.00;50.20;;;;;;;5.36;56.51;99356.40;108470;1235;95407;-81
2024/03/17 17:53:31;;;;;;;158.80;57.50;;;;;;;5.75;56.35;99354.38;104398;1285;649437;-94
2024/03/17 17:56:52;;;;;;;142.70;50.70;;;;;;;5.66;56.59;99354.83;104943;1259;169594;-80
2024/03/17 17:59:47;;;;;;;71.20;30.00;;;;;;;5.56;56.77;99357.21;105163;1268;95272;-82
2024/03/17 18:02:37;;;;;;;78.60;30.90;;;;;;;5.52;56.80;99359.67;105145;1258;108911;-79
2024/03/17 18:05:45;;;;;;;44.50;18.30;;;;;;;5.47;56.84;99351.80;105418;1264;95992;-80
2024/03/17 18:08:27;;;;;;;37.80;16.20;;;;;;;5.43;56.80;99348.85;104916;1274;106962;-83
2024/03/17 18:11:12;;;;;;;;;;;;;;;;;;;;;
2024/03/17 18:13:50;;;;;;;28.20;12.20;;;;;;;5.36;56.82;99352.67;105058;1257;95459;-79
2024/03/17 18:16:38;;;;;;;49.30;19.10;;;;;;;5.31;57.00;99353.25;104935;1264;108489;-79
2024/03/17 18:19:34;;;;;;;64.60;23.30;;;;;;;5.29;57.02;99352.13;104945;1263;95791;-81
2024/03/17 18:27:15;;;;;;;43.40;13.80;;;;;;;5.24;57.18;99346.39;105726;1268;96551;-83
2024/03/17 18:30:13;;;;;;;49.40;19.30;;;;;;;5.21;57.07;99335.45;104862;1264;96644;-78
2024/03/17 18:33:20;;;;;;;88.20;32.50;;;;;;;5.19;57.13;99333.59;104610;1267;112107;-80
2024/03/17 18:35:59;;;;;;;132.50;57.20;;;;;;;5.15;57.11;99337.98;105036;1267;97444;-81
2024/03/17 18:38:47;;;;;;;113.10;44.70;;;;;;;5.12;57.23;99337.95;106059;1267;107729;-79
2024/03/17 18:41:15;;;;;;;97.40;36.30;;;;;;;5.11;57.26;99333.80;105229;1274;96666;-79
2024/03/17 18:43:51;;;;;;;79.30;29.60;;;;;;;5.10;57.19;99335.63;105071;1260;96711;-78
2024/03/17 18:46:27;;;;;;;73.80;27.10;;;;;;;5.10;57.24;99342.61;105153;1265;109927;-80
2024/03/17 18:49:04;;;;;;;61.80;22.20;;;;;;;5.07;57.36;99339.77;105041;1264;97683;-80
2024/03/17 18:51:59;;;;;;;36.20;13.70;;;;;;;5.09;57.41;99341.09;105237;1258;107529;-82
2024/03/17 18:54:28;;;;;;;41.30;15.40;;;;;;;5.07;57.44;99332.55;105972;1261;96561;-78
2024/03/17 18:57:10;;;;;;;84.10;40.50;;;;;;;5.04;57.33;99320.05;105386;1257;96572;-77
2024/03/17 18:59:38;;;;;;;58.50;23.70;;;;;;;4.99;57.48;99311.47;105349;1260;109878;-78
2024/03/17 19:02:06;;;;;;;37.40;13.10;;;;;;;4.95;57.47;99318.70;105380;1260;96541;-77
2024/03/17 19:04:36;;;;;;;19.50;8.10;;;;;;;4.91;57.55;99324.84;105640;1260;107548;-78
2024/03/17 19:07:07;;;;;;;17.20;8.10;;;;;;;4.89;57.44;99338.48;105899;1260;96611;-78
2024/03/17 19:09:52;;;;;;;14.50;6.50;;;;;;;4.84;57.47;99338.86;105303;1260;96599;-78
2024/03/17 19:12:22;;;;;;;22.40;9.00;;;;;;;4.80;57.64;99343.42;105119;1261;112476;-79
2024/03/17 19:15:28;;;;;;;;;;;;;;;;;;;;;
2024/03/17 19:21:33;;;;;;;19.20;8.70;;;;;;;4.70;57.80;99346.16;105050;1258;96547;-79
2024/03/17 19:24:19;;;;;;;37.20;13.60;;;;;;;4.66;57.75;99347.21;105346;1262;96573;-79
2024/03/17 19:27:10;;;;;;;29.80;12.00;;;;;;;4.63;57.98;99352.45;105341;1257;110423;-79
2024/03/17 19:29:57;;;;;;;33.20;10.80;;;;;;;4.60;57.90;99353.63;105066;1274;96543;-80
2024/03/17 19:32:43;;;;;;;19.70;7.60;;;;;;;4.55;58.04;99350.64;105224;1257;108491;-80
2024/03/17 19:36:05;;;;;;;11.70;6.00;;;;;;;4.51;58.19;99352.44;105289;1257;96692;-80
2024/03/17 19:38:59;;;;;;;15.50;7.40;;;;;;;4.47;58.25;99350.33;105255;1257;97566;-79
2024/03/17 19:42:05;;;;;;;23.40;9.00;;;;;;;4.45;58.24;99350.73;106355;1258;110478;-81
2024/03/17 19:44:37;;;;;;;24.00;8.70;;;;;;;4.45;58.43;99347.05;105494;1260;96816;-78
2024/03/17 19:47:05;;;;;;;25.70;12.10;;;;;;;4.47;58.30;99347.16;105181;1271;106912;-80
2024/03/17 19:49:34;;;;;;;19.70;7.60;;;;;;;4.47;58.52;99344.14;105142;1258;97919;-79
2024/03/17 19:52:02;;;;;;;16.50;7.40;;;;;;;4.46;58.47;99344.38;105201;1257;96610;-80
2024/03/17 19:54:38;;;;;;;17.80;6.60;;;;;;;4.44;58.52;99343.59;105381;1263;110627;-78
2024/03/17 19:57:06;;;;;;;21.60;8.70;;;;;;;4.43;58.43;99336.27;104971;1262;97872;-78
2024/03/17 19:59:35;;;;;;;75.00;27.20;;;;;;;4.42;58.48;99329.47;104862;1273;107750;-78
2024/03/17 20:02:05;;;;;;;128.40;48.80;;;;;;;4.40;58.63;99321.79;105309;1259;96627;-79
2024/03/17 20:04:34;;;;;;;96.60;33.40;;;;;;;4.39;58.54;99325.20;105191;1259;96777;-78
2024/03/17 20:07:03;;;;;;;35.90;13.50;;;;;;;4.36;58.59;99327.24;105444;1274;109951;-78
2024/03/17 20:09:32;;;;;;;38.10;13.10;;;;;;;4.33;58.81;99320.71;105396;1262;96649;-80
2024/03/17 20:12:04;;;;;;;23.10;8.40;;;;;;;4.31;58.64;99323.95;105128;1262;107391;-77
2024/03/17 20:14:32;;;;;;;20.30;7.40;;;;;;;4.29;58.63;99325.62;104932;1263;96633;-79
2024/03/17 20:17:03;;;;;;;16.50;6.70;;;;;;;4.27;58.54;99328.32;105154;1261;96633;-78
2024/03/17 20:19:34;;;;;;;11.90;5.30;;;;;;;4.26;58.87;99330.30;105242;1263;110384;-77
2024/03/17 20:22:02;;;;;;;15.70;6.90;;;;;;;4.24;58.90;99332.84;105088;1262;96733;-79
2024/03/17 20:24:31;;;;;;;16.50;5.80;;;;;;;4.25;58.79;99338.96;105279;1259;108170;-82
2024/03/17 20:27:02;;;;;;;14.80;5.50;;;;;;;4.23;58.86;99342.73;105860;1260;96563;-78
2024/03/17 20:29:36;;;;;;;13.40;5.40;;;;;;;4.21;59.03;99343.86;105649;1263;96627;-81
2024/03/17 20:32:12;;;;;;;12.50;5.90;;;;;;;4.21;59.03;99340.35;104991;1260;109531;-79
2024/03/17 20:34:40;;;;;;;14.50;6.00;;;;;;;4.22;59.13;99342.25;105042;1262;97780;-79
2024/03/17 20:37:09;;;;;;;17.50;7.70;;;;;;;4.24;59.03;99340.77;105220;1266;106625;-82
2024/03/17 20:39:41;;;;;;;26.80;10.30;;;;;;;4.24;59.15;99337.25;105185;1262;96662;-80
2024/03/17 20:46:42;;;;;;;19.30;7.80;;;;;;;4.24;59.15;99335.48;105510;1259;109026;-76
2024/03/17 20:49:13;;;;;;;14.40;7.40;;;;;;;4.24;59.06;99337.27;105435;1262;96553;-78
2024/03/17 20:51:43;;;;;;;13.10;6.00;;;;;;;4.23;59.23;99337.11;105177;1261;107612;-78
2024/03/17 20:54:18;;;;;;;12.50;7.20;;;;;;;4.23;59.22;99341.66;105363;1265;96653;-79
2024/03/17 20:56:46;;;;;;;18.90;9.50;;;;;;;4.24;59.22;99340.40;105064;1263;96647;-78
2024/03/17 20:59:16;;;;;;;15.10;7.60;;;;;;;4.24;59.30;99339.70;105156;1264;109522;-78
2024/03/17 21:01:44;;;;;;;16.70;8.40;;;;;;;4.23;59.37;99334.11;105296;1262;97469;-79
2024/03/17 21:04:12;;;;;;;29.90;14.40;;;;;;;4.23;59.42;99332.91;105239;1264;107996;-79
2024/03/17 21:06:40;;;;;;;25.80;15.60;;;;;;;4.23;59.42;99328.88;105441;1260;96626;-77
2024/03/17 21:09:10;;;;;;;24.20;15.80;;;;;;;4.23;59.35;99324.84;105475;1263;96570;-79
2024/03/17 21:11:38;;;;;;;18.40;9.50;;;;;;;4.22;59.59;99321.00;104906;1259;110015;-78
2024/03/17 21:14:07;;;;;;;55.00;18.90;;;;;;;4.17;59.59;99319.27;105034;1259;97957;-82
2024/03/17 21:16:35;;;;;;;27.10;10.10;;;;;;;4.14;59.55;99319.91;105665;1260;107732;-80
2024/03/17 21:19:09;;;;;;;32.10;11.70;;;;;;;4.10;59.64;99317.63;106069;1259;96572;-79
2024/03/17 21:21:37;;;;;;;30.30;11.00;;;;;;;4.05;59.80;99314.50;105158;1264;96640;-79
2024/03/17 21:24:05;;;;;;;36.50;12.10;;;;;;;4.05;59.59;99311.90;105183;1262;108345;-79
2024/03/17 21:26:35;;;;;;;31.90;11.00;;;;;;;4.01;59.66;99313.95;105256;1259;97199;-77
2024/03/17 21:29:05;;;;;;;33.10;10.70;;;;;;;3.99;59.99;99313.02;105225;1264;107474;-79
2024/03/17 21:31:34;;;;;;;26.70;8.80;;;;;;;3.97;59.78;99306.39;104971;1262;96853;-79
2024/03/17 21:34:04;;;;;;;30.00;10.30;;;;;;;3.96;59.66;99309.27;105379;1259;96544;-78
2024/03/17 21:36:32;;;;;;;24.40;8.90;;;;;;;3.93;59.98;99305.37;105167;1272;109536;-79
2024/03/17 21:39:00;;;;;;;24.10;10.00;;;;;;;3.90;60.00;99302.30;104956;1263;96629;-79
2024/03/17 21:41:27;;;;;;;16.00;6.60;;;;;;;3.88;59.68;99297.48;104961;1262;107439;-79
2024/03/17 21:43:55;;;;;;;17.20;6.60;;;;;;;3.85;59.98;99295.86;105011;1262;96663;-81
2024/03/17 21:46:26;;;;;;;14.30;7.30;;;;;;;3.82;60.16;99298.78;105146;1259;97290;-78
2024/03/17 21:48:55;;;;;;;17.90;6.90;;;;;;;3.80;60.14;99292.57;105101;1262;110167;-77
2024/03/17 21:51:22;;;;;;;18.70;8.60;;;;;;;3.78;60.13;99292.81;104905;1262;97500;-78
2024/03/17 21:53:51;;;;;;;23.50;9.50;;;;;;;3.78;60.20;99292.83;105357;1261;107871;-79
2024/03/17 21:56:18;;;;;;;22.00;8.00;;;;;;;3.76;60.07;99287.96;105060;1262;96644;-75
2024/03/17 21:58:46;;;;;;;33.90;12.40;;;;;;;3.76;60.14;99290.08;104967;1274;96560;-78
2024/03/17 22:01:14;;;;;;;29.50;10.80;;;;;;;3.77;60.23;99284.97;104945;1259;109464;-78
2024/03/17 22:03:41;;;;;;;24.10;9.10;;;;;;;3.76;60.04;99285.89;105134;1262;97906;-80
2024/03/17 22:06:09;;;;;;;15.70;6.60;;;;;;;3.75;60.11;99283.48;104975;1273;107302;-78
2024/03/17 22:08:37;;;;;;;23.80;8.00;;;;;;;3.75;60.23;99281.53;105476;1261;96706;-79
2024/03/17 22:11:07;;;;;;;16.80;6.60;;;;;;;3.74;60.33;99275.60;105466;1259;96530;-78
2024/03/17 22:13:36;;;;;;;19.60;7.60;;;;;;;3.73;60.32;99275.30;105187;1262;111660;-78
2024/03/17 22:16:05;;;;;;;25.70;8.60;;;;;;;3.70;60.31;99269.95;105121;1264;97508;-79
2024/03/17 22:18:33;;;;;;;35.30;13.60;;;;;;;3.72;60.48;99268.33;105221;1263;107687;-79
2024/03/17 22:21:05;;;;;;;18.70;7.70;;;;;;;3.73;60.51;99268.28;105237;1259;99269;-78
2024/03/17 22:23:33;;;;;;;18.30;7.70;;;;;;;3.73;60.68;99265.80;105209;1259;98903;-78
2024/03/17 22:26:02;;;;;;;16.80;6.20;;;;;;;3.74;60.59;99264.38;104976;1262;111261;-78
2024/03/17 22:28:31;;;;;;;16.00;7.40;;;;;;;3.74;60.63;99261.58;105800;1262;98039;-79
2024/03/17 22:31:01;;;;;;;30.90;11.10;;;;;;;3.73;60.46;99261.42;105204;1259;107796;-78
2024/03/17 22:33:30;;;;;;;17.30;6.70;;;;;;;3.73;60.83;99259.34;105085;1262;97988;-79
2024/03/17 22:35:59;;;;;;;13.80;5.50;;;;;;;3.71;60.53;99256.42;105064;1262;97978;-78
2024/03/17 22:38:29;;;;;;;17.30;8.10;;;;;;;3.71;60.79;99253.98;105146;1262;111800;-79
2024/03/17 22:41:06;;;;;;;19.60;8.10;;;;;;;3.69;61.04;99255.09;105470;1260;98064;-79
2024/03/17 22:43:38;;;;;;;11.30;6.20;;;;;;;3.67;60.97;99256.04;105001;1264;107678;-78
2024/03/17 22:46:13;;;;;;;13.20;6.40;;;;;;;3.69;60.95;99264.05;105373;1262;98593;-79
2024/03/17 22:48:44;;;;;;;18.10;7.00;;;;;;;3.67;60.96;99262.02;105322;1262;97990;-79
2024/03/17 22:51:14;;;;;;;15.30;6.20;;;;;;;3.66;61.02;99259.99;105170;1262;113163;-79
2024/03/17 22:53:43;;;;;;;26.70;9.00;;;;;;;3.65;61.01;99260.71;104904;1259;99217;-77
2024/03/17 22:56:13;;;;;;;14.60;6.60;;;;;;;3.63;61.03;99255.53;105143;1262;107576;-79
2024/03/17 22:58:45;;;;;;;18.20;6.50;;;;;;;3.64;61.28;99258.32;105080;1262;98006;-78
2024/03/17 23:01:14;;;;;;;10.40;4.60;;;;;;;3.61;60.86;99258.95;105196;1258;97992;-79
2024/03/17 23:03:42;;;;;;;10.10;4.60;;;;;;;3.57;60.84;99258.39;105601;1259;111280;-78
2024/03/17 23:06:17;;;;;;;11.00;5.60;;;;;;;3.55;60.90;99257.27;105156;1261;98005;-78
2024/03/17 23:08:45;;;;;;;9.70;4.40;;;;;;;3.54;60.88;99264.83;104855;1260;106216;-78
2024/03/17 23:11:15;;;;;;;7.50;3.60;;;;;;;3.51;60.79;99261.44;105140;1259;98063;-81
2024/03/17 23:13:43;;;;;;;6.40;3.00;;;;;;;3.49;60.96;99263.97;104895;1259;98261;-77
2024/03/17 23:16:11;;;;;;;9.70;3.10;;;;;;;3.43;61.10;99261.26;105102;1263;111896;-79
2024/03/17 23:18:40;;;;;;;7.00;3.50;;;;;;;3.37;60.94;99264.96;105241;1262;98006;-78
2024/03/17 23:21:08;;;;;;;5.90;2.60;;;;;;;3.34;61.22;99262.15;105576;1265;107676;-79
2024/03/17 23:23:36;;;;;;;16.10;8.40;;;;;;;3.29;61.06;99259.34;105378;1262;97975;-79
2024/03/17 23:26:04;;;;;;;6.50;3.30;;;;;;;3.26;60.87;99258.95;105063;1262;98356;-78
2024/03/17 23:28:31;;;;;;;9.70;4.00;;;;;;;3.22;61.00;99253.64;105275;1259;110061;-79
2024/03/17 23:30:59;;;;;;;9.00;3.70;;;;;;;3.21;61.24;99254.06;105032;1259;99287;-80
2024/03/17 23:33:27;;;;;;;8.70;3.10;;;;;;;3.19;61.02;99254.13;105529;1259;107840;-79
2024/03/17 23:35:55;;;;;;;5.40;2.40;;;;;;;3.17;60.94;99247.02;105177;1262;97918;-79
2024/03/17 23:38:23;;;;;;;4.70;2.60;;;;;;;3.18;61.26;99247.34;105463;1259;98003;-78
2024/03/17 23:40:51;;;;;;;6.20;3.00;;;;;;;3.17;61.34;99251.38;105830;1261;111250;-78
2024/03/17 23:43:20;;;;;;;15.00;5.70;;;;;;;3.16;61.19;99247.41;104915;1262;98063;-81
2024/03/17 23:45:51;;;;;;;11.00;4.30;;;;;;;3.16;61.25;99248.80;105035;1260;106553;-78
2024/03/17 23:48:20;;;;;;;6.90;3.60;;;;;;;3.15;61.42;99246.60;105069;1262;98007;-78
2024/03/17 23:50:51;;;;;;;12.50;3.10;;;;;;;3.11;61.30;99246.52;104800;1264;99121;-78
2024/03/17 23:53:18;;;;;;;5.60;2.90;;;;;;;3.07;61.15;99243.55;105289;1262;110936;-77
2024/03/17 23:55:46;;;;;;;5.70;2.10;;;;;;;3.04;61.12;99243.31;105664;1261;98046;-79
2024/03/17 23:58:14;;;;;;;5.00;2.30;;;;;;;3.02;61.07;99243.04;105435;1262;107140;-79
